Iver, United Kingdom
Current Conditions -  °F | °C
As of 5:50 AM on Thursday 27 Nov 2014 (Local Time) from EGLL Reporting Station
Haze Haze  
Wind Chill:   Ceiling: 200
Heat Index:   Visibility: 2.5mi
Dew Point:   Wind: 6mph
Humidity: 93%   Direction: 250°WSW
Pressure: 29.62"   Gusts: NA
Location:  51.5°N, 0.5°W
Report Text: EGLL 270550Z 25005KT 4000 BR FEW001 BKN002 09/08 Q1003 NOSIG
Loading
Personal Weather Stations






























Interactive Weather Map New forecast layout! Learn more

10-Day Weather Forecast

Advertisements
Track Severe Weather on mobile